Terminal Aerodrome Forecast
Issued by NWS

Home | Current Version | Previous Version | Text Only | Print | Product List | Glossary On
Versions: 1 2 3 4 5 6 7 8 9 10 11 12 13 14 15 16 17 18
596
FTUS41 KPBZ 280524
TAFAGC
TAF
KAGC 280524Z 2806/2906 28006KT P6SM SCT200
      TEMPO 2810/2812 3SM BR
     FM281800 18005KT P6SM BKN130=

USA.gov is the U.S. government's official web portal to all federal, state and local government web resources and services.